createdAt,value
2019-05-14T00:00:42.473Z,20.10
2019-05-14T00:03:18.275Z,20.40
2019-05-14T00:05:55.316Z,20.60
2019-05-14T00:08:31.433Z,20.70
2019-05-14T00:11:09.523Z,20.60
2019-05-14T00:13:46.873Z,20.70
2019-05-14T00:16:25.740Z,20.70
2019-05-14T00:19:01.889Z,20.50
2019-05-14T00:21:42.559Z,20.60
2019-05-14T00:24:21.693Z,20.70
2019-05-14T00:26:59.042Z,20.60
2019-05-14T00:29:35.858Z,20.30
2019-05-14T00:32:14.234Z,20.30
2019-05-14T00:34:51.593Z,20.60
2019-05-14T00:37:29.272Z,20.80
2019-05-14T00:40:11.775Z,20.70
2019-05-14T00:42:47.670Z,20.70
2019-05-14T00:45:25.251Z,20.90
2019-05-14T00:48:02.472Z,21.00
2019-05-14T00:50:47.001Z,21.10
2019-05-14T00:53:23.229Z,21.50
2019-05-14T00:56:06.567Z,21.50
2019-05-14T00:58:43.948Z,21.60
2019-05-14T01:01:21.513Z,21.50
2019-05-14T01:04:01.112Z,21.50
2019-05-14T01:06:37.975Z,21.70
2019-05-14T01:09:23.427Z,22.00
2019-05-14T01:12:01.872Z,22.20
2019-05-14T01:14:38.386Z,22.20
2019-05-14T01:17:15.412Z,22.10
2019-05-14T01:19:55.942Z,22.10
2019-05-14T01:22:32.260Z,22.40
2019-05-14T01:25:09.201Z,22.70
2019-05-14T01:27:45.603Z,22.80
2019-05-14T01:30:23.107Z,23.00
2019-05-14T01:33:03.401Z,22.90
2019-05-14T01:35:42.020Z,22.70
2019-05-14T01:38:17.819Z,22.80
2019-05-14T01:40:54.494Z,22.90
2019-05-14T01:43:41.749Z,22.80
2019-05-14T01:46:16.875Z,22.60
2019-05-14T01:48:53.428Z,22.90
2019-05-14T01:51:31.903Z,23.10
2019-05-14T01:54:07.545Z,23.10
2019-05-14T01:56:43.419Z,23.20
2019-05-14T01:59:21.314Z,23.40
2019-05-14T02:01:57.294Z,23.60
2019-05-14T02:04:35.362Z,23.60
2019-05-14T02:07:15.899Z,23.70
2019-05-14T02:09:51.612Z,23.90
2019-05-14T02:12:27.724Z,23.80
2019-05-14T02:15:03.389Z,23.70
2019-05-14T02:17:41.396Z,23.80
2019-05-14T02:20:18.774Z,24.10
2019-05-14T02:22:54.578Z,23.90
2019-05-14T02:25:32.976Z,23.90
2019-05-14T02:28:11.404Z,24.00
2019-05-14T02:30:55.969Z,24.10
2019-05-14T02:33:22.219Z,24.20
2019-05-14T02:35:59.913Z,24.20
2019-05-14T02:38:34.312Z,24.20
2019-05-14T02:41:12.890Z,24.40
2019-05-14T02:43:50.301Z,24.60
2019-05-14T02:46:22.583Z,24.50
2019-05-14T02:48:59.487Z,24.70
2019-05-14T02:51:38.911Z,24.60
2019-05-14T02:54:13.972Z,24.90
2019-05-14T02:56:49.546Z,24.80
2019-05-14T02:59:30.190Z,25.00
2019-05-14T03:01:59.865Z,25.00
2019-05-14T03:04:35.686Z,24.90
2019-05-14T03:07:12.586Z,24.60
2019-05-14T03:09:50.418Z,24.60
2019-05-14T03:12:25.758Z,25.20
2019-05-14T03:15:01.811Z,25.30
2019-05-14T03:17:43.366Z,25.40
2019-05-14T03:20:30.943Z,25.70
2019-05-14T03:23:17.813Z,25.90
2019-05-14T03:25:45.327Z,25.90
2019-05-14T03:28:20.575Z,26.00
2019-05-14T03:30:55.383Z,25.80
2019-05-14T03:33:33.221Z,25.80
2019-05-14T03:36:16.593Z,25.50
2019-05-14T03:38:49.984Z,25.20
2019-05-14T03:41:30.335Z,25.60
2019-05-14T03:44:05.190Z,25.50
2019-05-14T03:46:51.442Z,25.50
2019-05-14T03:49:19.827Z,25.80
2019-05-14T03:52:00.375Z,25.60
2019-05-14T03:54:35.428Z,25.50
2019-05-14T03:57:11.967Z,25.30
2019-05-14T03:59:49.842Z,24.90
2019-05-14T04:02:29.738Z,24.80
2019-05-14T04:05:09.574Z,25.10
2019-05-14T04:07:49.933Z,24.60
2019-05-14T04:10:31.007Z,24.80
2019-05-14T04:13:09.109Z,24.80
2019-05-14T04:15:49.749Z,25.10
2019-05-14T04:18:28.600Z,25.30
2019-05-14T04:21:10.003Z,25.60
2019-05-14T04:23:45.849Z,25.20
2019-05-14T04:26:24.741Z,25.20
2019-05-14T04:29:04.362Z,25.50
2019-05-14T04:31:44.495Z,25.30
2019-05-14T04:34:22.241Z,25.30
2019-05-14T04:36:59.680Z,25.30
2019-05-14T04:39:50.342Z,25.40
2019-05-14T04:42:40.466Z,25.50
2019-05-14T04:45:19.428Z,25.30
2019-05-14T04:47:53.296Z,24.80
2019-05-14T04:50:33.736Z,25.00
2019-05-14T04:53:30.716Z,24.90
2019-05-14T04:56:05.443Z,25.00
2019-05-14T04:58:51.409Z,24.90
2019-05-14T05:01:30.273Z,24.80
2019-05-14T05:04:14.243Z,25.30
2019-05-14T05:06:59.269Z,25.30
2019-05-14T05:09:39.730Z,25.50
2019-05-14T05:12:15.927Z,25.40
2019-05-14T05:14:54.422Z,25.20
2019-05-14T05:17:44.216Z,25.00
2019-05-14T05:20:18.978Z,25.00
2019-05-14T05:22:54.855Z,25.00
2019-05-14T05:25:32.575Z,25.30
2019-05-14T05:28:11.249Z,24.80
2019-05-14T05:30:49.352Z,24.80
2019-05-14T05:33:29.135Z,24.90
2019-05-14T05:36:19.020Z,25.40
2019-05-14T05:39:20.223Z,25.50
2019-05-14T05:42:09.274Z,25.50
2019-05-14T05:44:48.702Z,25.60
2019-05-14T05:47:29.021Z,25.70
2019-05-14T05:50:04.702Z,25.50
2019-05-14T05:52:40.886Z,25.10
2019-05-14T05:55:19.000Z,25.10
2019-05-14T05:57:54.345Z,25.10
2019-05-14T06:00:40.608Z,25.50
2019-05-14T06:03:20.594Z,25.60
2019-05-14T06:06:01.108Z,25.30
2019-05-14T06:08:49.029Z,25.30
2019-05-14T06:11:24.805Z,25.30
2019-05-14T06:14:03.948Z,25.20
2019-05-14T06:16:39.660Z,25.20
2019-05-14T06:19:23.185Z,25.40
2019-05-14T06:21:59.959Z,25.40
2019-05-14T06:24:36.134Z,25.30
2019-05-14T06:27:12.218Z,25.20
2019-05-14T06:29:50.657Z,25.20
2019-05-14T06:32:31.419Z,25.10
2019-05-14T06:35:11.666Z,24.80
2019-05-14T06:37:49.043Z,24.80
2019-05-14T06:40:28.557Z,24.60
2019-05-14T06:43:04.219Z,24.70
2019-05-14T06:45:41.494Z,24.40
2019-05-14T06:48:29.864Z,24.70
2019-05-14T06:51:04.147Z,24.80
2019-05-14T06:56:35.263Z,24.60
2019-05-14T06:59:10.781Z,24.30
2019-05-14T07:01:48.782Z,24.10
2019-05-14T07:04:25.208Z,24.30
2019-05-14T07:07:01.265Z,24.20
2019-05-14T07:09:43.672Z,24.00
2019-05-14T07:15:13.135Z,24.10
2019-05-14T07:17:58.406Z,24.00
2019-05-14T07:20:39.226Z,24.20
2019-05-14T07:23:19.227Z,24.20
2019-05-14T07:25:54.128Z,24.00
2019-05-14T07:28:30.293Z,24.00
2019-05-14T07:31:10.597Z,23.90
2019-05-14T07:33:48.976Z,23.90
2019-05-14T07:36:23.162Z,23.90
2019-05-14T07:39:00.244Z,23.70
2019-05-14T07:41:38.776Z,23.70
2019-05-14T07:44:18.192Z,23.70
2019-05-14T07:46:52.703Z,23.80
2019-05-14T07:49:29.068Z,23.90
2019-05-14T07:52:10.411Z,24.00
2019-05-14T07:54:48.072Z,24.30
2019-05-14T07:57:22.475Z,24.10
2019-05-14T08:00:00.303Z,24.00
2019-05-14T08:02:38.028Z,23.90
2019-05-14T08:05:13.707Z,24.00
2019-05-14T08:07:49.605Z,23.90
2019-05-14T08:10:25.874Z,24.00
2019-05-14T08:13:01.677Z,23.90
2019-05-14T08:15:38.667Z,23.90
2019-05-14T08:18:20.956Z,23.80
2019-05-14T08:20:58.975Z,23.90
2019-05-14T08:23:33.792Z,23.80
2019-05-14T08:26:10.835Z,23.40
2019-05-14T08:28:48.653Z,23.30
2019-05-14T08:31:24.611Z,23.40
2019-05-14T08:34:04.699Z,23.40
2019-05-14T08:36:38.133Z,23.40
2019-05-14T08:39:14.714Z,23.50
2019-05-14T08:41:59.333Z,23.40
2019-05-14T08:44:29.389Z,23.10
2019-05-14T08:47:04.911Z,23.10
2019-05-14T08:49:46.160Z,23.10
2019-05-14T08:52:23.180Z,22.90
2019-05-14T08:55:07.007Z,22.90
2019-05-14T08:57:38.756Z,22.80
2019-05-14T09:00:14.397Z,22.80
2019-05-14T09:02:50.965Z,22.60
2019-05-14T09:05:28.560Z,22.70
2019-05-14T09:08:04.440Z,22.60
2019-05-14T09:10:40.775Z,22.60
2019-05-14T09:13:18.422Z,22.50
2019-05-14T09:15:53.568Z,22.50
2019-05-14T09:18:29.796Z,22.60
2019-05-14T09:21:05.649Z,22.50
2019-05-14T09:23:42.032Z,22.60
2019-05-14T09:26:21.549Z,22.60
2019-05-14T09:28:58.676Z,22.50
2019-05-14T09:31:35.613Z,22.50
2019-05-14T09:34:19.407Z,22.30
2019-05-14T09:36:53.146Z,22.10
2019-05-14T09:39:30.181Z,22.30
2019-05-14T09:42:07.947Z,22.20
2019-05-14T09:44:48.870Z,21.80
2019-05-14T09:47:23.137Z,21.90
2019-05-14T09:50:15.318Z,22.20
2019-05-14T09:52:38.894Z,22.20
2019-05-14T09:55:14.077Z,22.20
2019-05-14T09:57:51.345Z,22.20
2019-05-14T10:00:26.925Z,22.20
2019-05-14T10:03:02.644Z,22.10
2019-05-14T10:05:38.644Z,21.90
2019-05-14T10:08:14.448Z,21.70
2019-05-14T10:10:50.930Z,21.80
2019-05-14T10:13:28.064Z,21.80
2019-05-14T10:16:04.643Z,21.60
2019-05-14T10:18:41.642Z,21.50
2019-05-14T10:21:19.125Z,21.60
2019-05-14T10:23:55.127Z,21.70
2019-05-14T10:26:31.661Z,21.90
2019-05-14T10:29:08.657Z,21.50
2019-05-14T10:31:48.566Z,21.50
2019-05-14T10:34:23.534Z,21.60
2019-05-14T10:36:59.719Z,21.60
2019-05-14T10:39:35.550Z,21.60
2019-05-14T10:42:11.757Z,21.50
2019-05-14T10:44:47.957Z,21.60
2019-05-14T10:47:23.924Z,21.40
2019-05-14T10:53:02.007Z,21.60
2019-05-14T10:55:38.635Z,21.50
2019-05-14T10:58:14.743Z,21.30
2019-05-14T11:00:50.441Z,21.20
2019-05-14T11:03:29.728Z,21.40
2019-05-14T11:06:03.648Z,21.40
2019-05-14T11:08:42.290Z,21.30
2019-05-14T11:11:18.510Z,21.40
2019-05-14T11:13:55.066Z,21.40
2019-05-14T11:16:30.662Z,21.30
2019-05-14T11:19:09.077Z,21.40
2019-05-14T11:21:41.654Z,21.30
2019-05-14T11:24:21.689Z,21.30
2019-05-14T11:26:59.144Z,21.30
2019-05-14T11:29:34.281Z,21.30
2019-05-14T11:32:11.628Z,21.40
2019-05-14T11:34:49.238Z,21.50
2019-05-14T11:37:24.834Z,21.30
2019-05-14T11:40:00.718Z,21.40
2019-05-14T11:42:35.511Z,21.30
2019-05-14T11:45:14.625Z,21.30
2019-05-14T11:47:50.334Z,21.20
2019-05-14T11:50:28.475Z,21.20
2019-05-14T11:53:03.192Z,21.10
2019-05-14T11:55:45.305Z,21.20
2019-05-14T11:58:21.557Z,21.20
2019-05-14T12:00:58.461Z,21.10
2019-05-14T12:03:35.307Z,21.00
2019-05-14T12:06:11.877Z,21.00
2019-05-14T12:08:47.815Z,21.00
2019-05-14T12:11:22.975Z,20.90
2019-05-14T12:13:59.836Z,20.90
2019-05-14T12:16:35.619Z,21.00
2019-05-14T12:19:12.439Z,20.90
2019-05-14T12:22:02.280Z,20.90
2019-05-14T12:24:25.261Z,20.80
2019-05-14T12:27:01.283Z,20.70
2019-05-14T12:29:39.520Z,20.70
2019-05-14T12:32:14.322Z,20.70
2019-05-14T12:34:51.128Z,20.70
2019-05-14T12:37:25.619Z,20.60
2019-05-14T12:40:01.052Z,20.70
2019-05-14T12:42:42.264Z,20.60
2019-05-14T12:45:21.955Z,20.40
2019-05-14T12:47:58.453Z,20.20
2019-05-14T12:50:35.453Z,20.30
2019-05-14T12:53:13.973Z,20.30
2019-05-14T12:55:49.920Z,20.50
2019-05-14T12:58:29.702Z,20.50
2019-05-14T13:01:05.375Z,20.40
2019-05-14T13:03:41.165Z,20.20
2019-05-14T13:06:19.102Z,20.10
2019-05-14T13:08:54.581Z,20.20
2019-05-14T13:11:30.241Z,19.90
2019-05-14T13:14:10.382Z,19.90
2019-05-14T13:16:48.577Z,19.80
2019-05-14T13:19:28.620Z,19.90
2019-05-14T13:22:12.990Z,19.70
2019-05-14T13:24:51.562Z,19.70
2019-05-14T13:27:28.725Z,20.00
2019-05-14T13:30:02.959Z,20.00
2019-05-14T13:32:42.375Z,20.00
2019-05-14T13:35:19.875Z,19.90
2019-05-14T13:37:58.610Z,20.00
2019-05-14T13:40:35.015Z,20.00
2019-05-14T13:43:14.545Z,20.10
2019-05-14T13:45:55.746Z,20.00
2019-05-14T13:48:38.657Z,20.10
2019-05-14T13:51:19.788Z,19.90
2019-05-14T13:53:58.762Z,19.90
2019-05-14T13:56:35.923Z,19.90
2019-05-14T13:59:18.826Z,20.00
2019-05-14T14:04:33.734Z,19.90
2019-05-14T14:07:12.147Z,19.90
2019-05-14T14:09:49.805Z,19.90
2019-05-14T14:12:29.327Z,19.80
2019-05-14T14:15:09.450Z,19.80
2019-05-14T14:17:49.409Z,19.80
2019-05-14T14:20:29.064Z,19.70
2019-05-14T14:23:17.659Z,19.60
2019-05-14T14:25:53.388Z,19.70
2019-05-14T14:28:39.278Z,19.60
2019-05-14T14:37:02.394Z,20.00
2019-05-14T14:39:48.629Z,20.00
2019-05-14T14:42:24.364Z,19.90
2019-05-14T14:45:08.446Z,19.70
2019-05-14T14:47:50.026Z,19.40
2019-05-14T14:50:29.262Z,19.30
2019-05-14T14:53:09.199Z,19.60
2019-05-14T14:55:49.507Z,19.60
2019-05-14T14:58:28.509Z,19.80
2019-05-14T15:01:21.537Z,19.90
2019-05-14T15:04:00.024Z,19.80
2019-05-14T15:06:39.979Z,19.70
2019-05-14T15:09:26.307Z,19.70
2019-05-14T15:12:01.994Z,19.70
2019-05-14T15:14:39.485Z,19.70
2019-05-14T15:17:30.095Z,19.80
2019-05-14T15:20:09.899Z,19.80
2019-05-14T15:22:49.203Z,19.70
2019-05-14T15:25:25.759Z,19.70
2019-05-14T15:34:01.612Z,19.40
2019-05-14T15:36:48.968Z,19.30
2019-05-14T15:39:29.875Z,19.50
2019-05-14T15:42:06.018Z,19.70
2019-05-14T15:44:54.468Z,19.60
2019-05-14T15:47:20.784Z,19.60
2019-05-14T15:52:59.090Z,19.50
2019-05-14T15:55:34.762Z,19.50
2019-05-14T15:58:13.572Z,19.40
2019-05-14T16:00:50.100Z,19.40
2019-05-14T16:06:19.884Z,19.40
2019-05-14T16:08:59.002Z,19.40
2019-05-14T16:11:36.181Z,19.50
2019-05-14T16:14:19.123Z,19.60
2019-05-14T16:16:59.199Z,19.60
2019-05-14T16:19:40.127Z,19.60
2019-05-14T16:22:29.436Z,19.70
2019-05-14T16:25:12.349Z,19.60
2019-05-14T16:27:50.939Z,19.60
2019-05-14T16:30:29.023Z,19.40
2019-05-14T16:36:02.507Z,19.30
2019-05-14T16:38:39.478Z,19.50
2019-05-14T16:41:18.246Z,19.50
2019-05-14T16:43:50.838Z,19.50
2019-05-14T16:46:28.704Z,19.20
2019-05-14T16:49:03.359Z,19.10
2019-05-14T16:51:39.144Z,18.80
2019-05-14T16:54:18.206Z,18.80
2019-05-14T16:56:53.338Z,19.00
2019-05-14T16:59:34.900Z,19.30
2019-05-14T17:02:11.369Z,19.20
2019-05-14T17:04:48.339Z,19.00
2019-05-14T17:07:28.795Z,19.10
2019-05-14T17:10:03.846Z,19.20
2019-05-14T17:12:52.009Z,19.30
2019-05-14T17:15:18.734Z,19.10
2019-05-14T17:17:55.343Z,19.10
2019-05-14T17:20:31.102Z,19.20
2019-05-14T17:23:08.898Z,19.40
2019-05-14T17:25:43.407Z,19.40
2019-05-14T17:28:20.426Z,19.30
2019-05-14T17:30:58.675Z,19.30
2019-05-14T17:33:34.160Z,19.40
2019-05-14T17:36:11.216Z,19.50
2019-05-14T17:38:48.937Z,19.50
2019-05-14T17:41:24.276Z,19.50
2019-05-14T17:44:01.223Z,19.50
2019-05-14T17:46:39.273Z,19.40
2019-05-14T17:49:12.661Z,19.40
2019-05-14T17:51:48.612Z,19.50
2019-05-14T17:54:28.235Z,19.50
2019-05-14T17:57:02.959Z,19.50
2019-05-14T17:59:39.050Z,19.40
2019-05-14T18:02:15.019Z,19.50
2019-05-14T18:04:51.086Z,19.40
2019-05-14T18:07:28.540Z,19.40
2019-05-14T18:10:01.841Z,19.20
2019-05-14T18:12:39.634Z,19.10
2019-05-14T18:15:14.814Z,19.10
2019-05-14T18:17:51.071Z,19.30
2019-05-14T18:20:28.684Z,19.40
2019-05-14T18:23:03.562Z,19.10
2019-05-14T18:25:39.294Z,19.20
2019-05-14T18:28:17.935Z,19.40
2019-05-14T18:30:52.862Z,19.30
2019-05-14T18:33:31.166Z,19.40
2019-05-14T18:36:03.622Z,19.40
2019-05-14T18:38:39.340Z,19.40
2019-05-14T18:41:14.871Z,19.40
2019-05-14T18:43:50.603Z,19.50
2019-05-14T18:46:28.359Z,19.40
2019-05-14T18:49:03.175Z,19.40
2019-05-14T18:51:38.876Z,19.50
2019-05-14T18:54:14.697Z,19.60
2019-05-14T18:56:50.878Z,19.50
2019-05-14T18:59:30.534Z,19.40
2019-05-14T19:02:03.012Z,19.50
2019-05-14T19:04:38.673Z,19.60
2019-05-14T19:07:15.676Z,19.60
2019-05-14T19:09:51.355Z,19.60
2019-05-14T19:12:28.735Z,19.60
2019-05-14T19:15:03.590Z,19.50
2019-05-14T19:17:40.332Z,19.40
2019-05-14T19:20:19.064Z,19.50
2019-05-14T19:22:53.424Z,19.60
2019-05-14T19:25:29.643Z,19.60
2019-05-14T19:28:05.209Z,19.60
2019-05-14T19:30:40.786Z,19.60
2019-05-14T19:33:16.354Z,19.60
2019-05-14T19:35:53.096Z,19.60
2019-05-14T19:38:28.503Z,19.70
2019-05-14T19:41:04.142Z,19.70
2019-05-14T19:43:39.555Z,19.70
2019-05-14T19:46:15.415Z,19.70
2019-05-14T19:48:51.069Z,19.70
2019-05-14T19:51:27.881Z,19.70
2019-05-14T19:54:03.142Z,19.60
2019-05-14T19:56:52.429Z,19.70
2019-05-14T19:59:17.943Z,19.60
2019-05-14T20:01:51.282Z,19.50
2019-05-14T20:04:29.017Z,19.40
2019-05-14T20:07:04.164Z,19.50
2019-05-14T20:09:40.018Z,19.50
2019-05-14T20:12:18.737Z,19.60
2019-05-14T20:14:54.799Z,19.60
2019-05-14T20:17:29.939Z,19.60
2019-05-14T20:20:05.793Z,19.50
2019-05-14T20:22:42.059Z,19.60
2019-05-14T20:25:17.986Z,19.50
2019-05-14T20:27:54.430Z,19.50
2019-05-14T20:30:30.443Z,19.50
2019-05-14T20:33:08.494Z,19.40
2019-05-14T20:35:44.242Z,19.50
2019-05-14T20:38:20.452Z,19.50
2019-05-14T20:40:59.578Z,19.50
2019-05-14T20:43:35.610Z,19.60
2019-05-14T20:46:11.384Z,19.40
2019-05-14T20:48:50.500Z,19.40
2019-05-14T20:51:28.287Z,19.40
2019-05-14T20:54:05.647Z,19.40
2019-05-14T20:56:44.763Z,19.40
2019-05-14T20:59:21.258Z,19.20
2019-05-14T21:02:00.196Z,18.90
2019-05-14T21:04:36.877Z,19.10
2019-05-14T21:07:13.178Z,19.10
2019-05-14T21:09:49.223Z,18.90
2019-05-14T21:12:25.147Z,19.00
2019-05-14T21:15:01.457Z,19.10
2019-05-14T21:17:37.335Z,19.10
2019-05-14T21:20:13.128Z,18.90
2019-05-14T21:22:48.790Z,19.00
2019-05-14T21:25:24.531Z,19.10
2019-05-14T21:28:00.224Z,19.10
2019-05-14T21:30:36.008Z,19.20
2019-05-14T21:33:11.615Z,19.10
2019-05-14T21:35:48.498Z,19.10
2019-05-14T21:38:24.550Z,19.00
2019-05-14T21:41:00.199Z,19.10
2019-05-14T21:43:35.846Z,19.20
2019-05-14T21:46:11.665Z,19.10
2019-05-14T21:48:47.827Z,19.20
2019-05-14T21:51:23.638Z,19.30
2019-05-14T21:53:59.210Z,19.10
2019-05-14T21:56:34.905Z,19.00
2019-05-14T21:59:10.554Z,19.00
2019-05-14T22:01:48.458Z,19.10
2019-05-14T22:04:23.325Z,19.10
2019-05-14T22:06:59.137Z,19.10
2019-05-14T22:09:38.365Z,19.10
2019-05-14T22:12:12.049Z,19.10
2019-05-14T22:14:48.170Z,19.20
2019-05-14T22:17:24.181Z,19.20
2019-05-14T22:19:59.650Z,19.20
2019-05-14T22:22:35.433Z,19.20
2019-05-14T22:25:11.405Z,19.20
2019-05-14T22:27:48.388Z,19.20
2019-05-14T22:30:23.787Z,19.10
2019-05-14T22:33:00.699Z,19.00
2019-05-14T22:35:36.205Z,19.00
2019-05-14T22:38:12.073Z,19.10
2019-05-14T22:40:48.291Z,19.10
2019-05-14T22:43:24.035Z,19.20
2019-05-14T22:45:59.590Z,19.30
2019-05-14T22:48:35.381Z,19.20
2019-05-14T22:51:11.173Z,19.30
2019-05-14T22:53:49.281Z,19.30
2019-05-14T22:56:21.978Z,19.30
2019-05-14T22:58:58.271Z,19.30
2019-05-14T23:01:34.033Z,19.40
2019-05-14T23:04:09.777Z,19.40
2019-05-14T23:06:45.358Z,19.40
2019-05-14T23:09:21.036Z,19.50
2019-05-14T23:11:58.863Z,19.60
2019-05-14T23:14:34.003Z,19.40
2019-05-14T23:17:09.706Z,19.60
2019-05-14T23:19:45.753Z,19.50
2019-05-14T23:22:21.358Z,19.40
2019-05-14T23:24:59.047Z,19.40
2019-05-14T23:27:32.210Z,19.50
2019-05-14T23:30:08.235Z,19.50
2019-05-14T23:32:48.985Z,19.20
2019-05-14T23:35:22.598Z,19.30
2019-05-14T23:37:59.285Z,19.30
2019-05-14T23:40:34.549Z,19.40
2019-05-14T23:43:11.016Z,19.40
2019-05-14T23:45:47.056Z,19.50
2019-05-14T23:48:22.880Z,19.50
2019-05-14T23:50:59.146Z,19.50
2019-05-14T23:53:38.850Z,19.50
2019-05-14T23:56:13.848Z,19.60
2019-05-14T23:58:57.718Z,19.50
